Time,TemperatureF,DewpointF,PressureIn,WindDirection,WindDirectionDegrees,WindSpeedMPH,WindSpeedGustMPH,Humidity,HourlyPrecipIn,Conditions,Clouds,dailyrainin,SoftwareType,DateUTC
2013-03-23 00:03:00,28.0,15.0,-100.00,SSW,200,1.0,2.0,58,0.00,,,-99.99,,2013-03-23 04:03:00,
2013-03-23 00:12:00,28.0,16.0,-100.00,West,270,0.0,1.0,60,0.00,,,-99.99,,2013-03-23 04:12:00,
2013-03-23 00:23:00,28.0,16.0,-100.00,West,270,0.0,1.0,60,0.00,,,-99.99,,2013-03-23 04:23:00,
2013-03-23 00:32:00,29.0,16.0,-100.00,NNW,335,1.0,2.0,60,0.00,,,-99.99,,2013-03-23 04:32:00,
2013-03-23 00:43:00,28.0,16.0,-100.00,NW,325,1.0,2.0,60,0.00,,,-99.99,,2013-03-23 04:43:00,
2013-03-23 00:53:00,28.0,16.0,-100.00,NW,325,1.0,2.0,60,0.00,,,-99.99,,2013-03-23 04:53:00,
2013-03-23 01:02:00,29.0,17.0,-100.00,NNW,345,2.0,4.0,60,0.00,,,-99.99,,2013-03-23 05:02:00,
2013-03-23 01:12:00,28.0,16.0,-100.00,NW,315,1.0,2.0,60,0.00,,,-99.99,,2013-03-23 05:12:00,
2013-03-23 01:22:00,28.0,16.0,-100.00,NW,315,1.0,2.0,60,0.00,,,-99.99,,2013-03-23 05:22:00,
2013-03-23 01:32:00,29.0,17.0,-100.00,NNW,340,1.0,2.0,61,0.00,,,-99.99,,2013-03-23 05:32:00,
2013-03-23 01:42:00,29.0,17.0,-100.00,North,350,2.0,3.0,60,0.00,,,-99.99,,2013-03-23 05:42:00,
2013-03-23 01:52:00,29.0,17.0,-100.00,North,350,2.0,3.0,60,0.00,,,-99.99,,2013-03-23 05:52:00,
2013-03-23 02:02:00,28.0,17.0,-100.00,NNW,340,1.0,2.0,61,0.00,,,-99.99,,2013-03-23 06:02:00,
2013-03-23 02:12:00,28.0,17.0,-100.00,NNW,340,1.0,2.0,62,0.00,,,-99.99,,2013-03-23 06:12:00,
2013-03-23 02:22:00,28.0,17.0,-100.00,NNW,345,0.0,2.0,62,0.00,,,-99.99,,2013-03-23 06:22:00,
2013-03-23 02:32:00,28.0,17.0,-100.00,NNW,345,0.0,2.0,62,0.00,,,-99.99,,2013-03-23 06:32:00,
2013-03-23 02:42:00,26.0,15.0,-100.00,WNW,300,0.0,1.0,64,0.00,,,-99.99,,2013-03-23 06:42:00,
2013-03-23 02:52:00,26.0,15.0,-100.00,WNW,300,0.0,1.0,64,0.00,,,-99.99,,2013-03-23 06:52:00,
2013-03-23 03:02:00,26.0,17.0,-100.00,WNW,290,1.0,2.0,66,0.00,,,-99.99,,2013-03-23 07:02:00,
2013-03-23 03:12:00,27.0,17.0,-100.00,NW,320,1.0,3.0,65,0.00,,,-99.99,,2013-03-23 07:12:00,
2013-03-23 03:22:00,27.0,17.0,-100.00,NW,320,1.0,3.0,65,0.00,,,-99.99,,2013-03-23 07:22:00,
2013-03-23 03:32:00,27.0,17.0,-100.00,NW,320,1.0,2.0,65,0.00,,,-99.99,,2013-03-23 07:32:00,
2013-03-23 03:42:00,26.0,16.0,-100.00,WNW,295,1.0,3.0,66,0.00,,,-99.99,,2013-03-23 07:42:00,
2013-03-23 03:52:00,26.0,16.0,-100.00,WNW,290,1.0,2.0,68,0.00,,,-99.99,,2013-03-23 07:52:00,
2013-03-23 04:02:00,26.0,16.0,-100.00,WNW,290,1.0,2.0,68,0.00,,,-99.99,,2013-03-23 08:02:00,
2013-03-23 04:13:00,26.0,17.0,-100.00,NW,305,2.0,4.0,69,0.00,,,-99.99,,2013-03-23 08:13:00,
2013-03-23 04:22:00,26.0,17.0,-100.00,NW,305,2.0,4.0,69,0.00,,,-99.99,,2013-03-23 08:22:00,
2013-03-23 04:32:00,26.0,17.0,-100.00,WNW,295,1.0,3.0,70,0.00,,,-99.99,,2013-03-23 08:32:00,
2013-03-23 04:42:00,26.0,17.0,-100.00,WNW,295,2.0,6.0,71,0.00,,,-99.99,,2013-03-23 08:42:00,
2013-03-23 04:52:00,26.0,18.0,-100.00,WNW,295,1.0,4.0,71,0.00,,,-99.99,,2013-03-23 08:52:00,
2013-03-23 05:02:00,26.0,18.0,-100.00,WNW,295,1.0,4.0,71,0.00,,,-99.99,,2013-03-23 09:02:00,
2013-03-23 05:12:00,26.0,18.0,-100.00,NNW,335,1.0,3.0,71,0.00,,,-99.99,,2013-03-23 09:12:00,
2013-03-23 05:22:00,26.0,18.0,-100.00,NNW,335,1.0,3.0,71,0.00,,,-99.99,,2013-03-23 09:22:00,
2013-03-23 05:33:00,27.0,18.0,-100.00,NNW,345,1.0,4.0,70,0.00,,,-99.99,,2013-03-23 09:33:00,
2013-03-23 05:42:00,26.0,17.0,-100.00,WNW,295,0.0,2.0,70,0.00,,,-99.99,,2013-03-23 09:42:00,
2013-03-23 05:53:00,26.0,17.0,-100.00,WNW,300,2.0,2.0,71,0.00,,,-99.99,,2013-03-23 09:53:00,
2013-03-23 06:03:00,26.0,17.0,-100.00,WNW,300,2.0,2.0,71,0.00,,,-99.99,,2013-03-23 10:03:00,
2013-03-23 06:13:00,25.0,17.0,-100.00,WNW,290,2.0,4.0,73,0.00,,,-99.99,,2013-03-23 10:13:00,
2013-03-23 06:23:00,25.0,17.0,-100.00,WNW,285,1.0,2.0,73,0.00,,,-99.99,,2013-03-23 10:23:00,
2013-03-23 06:34:00,25.0,17.0,-100.00,WNW,285,1.0,2.0,73,0.00,,,-99.99,,2013-03-23 10:34:00,
2013-03-23 06:42:00,25.0,18.0,-100.00,West,265,3.0,5.0,75,0.00,,,-99.99,,2013-03-23 10:42:00,
2013-03-23 06:52:00,26.0,18.0,-100.00,West,265,4.0,6.0,74,0.00,,,-99.99,,2013-03-23 10:52:00,
2013-03-23 07:03:00,26.0,18.0,-100.00,West,265,4.0,6.0,74,0.00,,,-99.99,,2013-03-23 11:03:00,
2013-03-23 07:12:00,26.0,18.0,-100.00,West,280,2.0,6.0,73,0.00,,,-99.99,,2013-03-23 11:12:00,
2013-03-23 07:22:00,26.0,18.0,-100.00,West,280,2.0,6.0,73,0.00,,,-99.99,,2013-03-23 11:22:00,
2013-03-23 07:32:00,26.0,19.0,-100.00,West,270,3.0,6.0,73,0.00,,,-99.99,,2013-03-23 11:32:00,
2013-03-23 07:42:00,27.0,19.0,-100.00,West,265,3.0,6.0,73,0.00,,,-99.99,,2013-03-23 11:42:00,
2013-03-23 07:51:00,27.0,19.0,-100.00,West,265,3.0,6.0,73,0.00,,,-99.99,,2013-03-23 11:51:00,
2013-03-23 08:02:00,27.0,19.0,-100.00,West,275,3.0,5.0,72,0.00,,,-99.99,,2013-03-23 12:02:00,
2013-03-23 08:13:00,28.0,20.0,-100.00,West,270,2.0,6.0,72,0.00,,,-99.99,,2013-03-23 12:13:00,
2013-03-23 08:22:00,28.0,20.0,-100.00,West,270,2.0,6.0,72,0.00,,,-99.99,,2013-03-23 12:22:00,
2013-03-23 08:33:00,30.0,21.0,-100.00,West,270,3.0,6.0,70,0.00,,,-99.99,,2013-03-23 12:33:00,
2013-03-23 08:42:00,31.0,22.0,-100.00,West,280,2.0,7.0,69,0.00,,,-99.99,,2013-03-23 12:42:00,
2013-03-23 08:52:00,31.0,22.0,-100.00,West,280,2.0,7.0,69,0.00,,,-99.99,,2013-03-23 12:52:00,
2013-03-23 09:03:00,32.0,22.0,-100.00,WNW,290,3.0,7.0,68,0.00,,,-99.99,,2013-03-23 13:03:00,
2013-03-23 09:12:00,33.0,22.0,-100.00,West,270,2.0,4.0,66,0.00,,,-99.99,,2013-03-23 13:12:00,
2013-03-23 09:23:00,33.0,23.0,-100.00,West,280,2.0,7.0,64,0.00,,,-99.99,,2013-03-23 13:23:00,
2013-03-23 09:33:00,33.0,23.0,-100.00,West,280,2.0,7.0,64,0.00,,,-99.99,,2013-03-23 13:33:00,
2013-03-23 09:42:00,35.0,23.0,-100.00,WNW,295,3.0,6.0,62,0.00,,,-99.99,,2013-03-23 13:42:00,
2013-03-23 09:52:00,35.0,23.0,-100.00,WNW,295,3.0,6.0,62,0.00,,,-99.99,,2013-03-23 13:52:00,
2013-03-23 10:03:00,35.0,23.0,-100.00,NW,305,2.0,7.0,61,0.00,,,-99.99,,2013-03-23 14:03:00,
2013-03-23 10:12:00,36.0,23.0,-100.00,WNW,285,3.0,7.0,59,0.00,,,-99.99,,2013-03-23 14:12:00,
2013-03-23 10:22:00,36.0,23.0,-100.00,WNW,285,3.0,7.0,59,0.00,,,-99.99,,2013-03-23 14:22:00,
2013-03-23 10:32:00,37.0,23.0,-100.00,WNW,300,4.0,9.0,57,0.00,,,-99.99,,2013-03-23 14:32:00,
2013-03-23 10:43:00,39.0,23.0,-100.00,NW,310,7.0,11.0,54,0.00,,,-99.99,,2013-03-23 14:43:00,
2013-03-23 10:52:00,39.0,23.0,-100.00,NW,320,8.0,19.0,51,0.00,,,-99.99,,2013-03-23 14:52:00,
2013-03-23 11:03:00,39.0,23.0,-100.00,NW,320,8.0,19.0,51,0.00,,,-99.99,,2013-03-23 15:03:00,
2013-03-23 11:12:00,40.0,21.0,-100.00,NW,310,9.0,21.0,46,0.00,,,-99.99,,2013-03-23 15:12:00,
2013-03-23 11:22:00,42.0,22.0,-100.00,NW,310,7.0,15.0,45,0.00,,,-99.99,,2013-03-23 15:22:00,
2013-03-23 11:33:00,42.0,22.0,-100.00,NW,310,7.0,15.0,45,0.00,,,-99.99,,2013-03-23 15:33:00,
2013-03-23 11:43:00,43.0,22.0,-100.00,WNW,295,7.0,15.0,43,0.00,,,-99.99,,2013-03-23 15:43:00,
2013-03-23 11:52:00,40.0,20.0,-100.00,NNW,345,9.0,19.0,44,0.00,,,-99.99,,2013-03-23 15:52:00,
2013-03-23 12:03:00,40.0,20.0,-100.00,NNW,345,9.0,19.0,44,0.00,,,-99.99,,2013-03-23 16:03:00,
2013-03-23 12:13:00,44.0,22.0,-100.00,NW,305,7.0,14.0,42,0.00,,,-99.99,,2013-03-23 16:13:00,
2013-03-23 12:23:00,44.0,22.0,-100.00,NNW,330,8.0,14.0,42,0.00,,,-99.99,,2013-03-23 16:23:00,
2013-03-23 12:33:00,44.0,22.0,-100.00,NNW,330,8.0,14.0,42,0.00,,,-99.99,,2013-03-23 16:33:00,
2013-03-23 12:43:00,41.0,20.0,-100.00,NW,315,6.0,16.0,43,0.00,,,-99.99,,2013-03-23 16:43:00,
2013-03-23 12:53:00,44.0,23.0,-100.00,WNW,300,5.0,12.0,42,0.00,,,-99.99,,2013-03-23 16:53:00,
2013-03-23 13:03:00,44.0,23.0,-100.00,WNW,300,5.0,12.0,42,0.00,,,-99.99,,2013-03-23 17:03:00,
2013-03-23 13:12:00,46.0,23.0,-100.00,West,280,4.0,14.0,40,0.00,,,-99.99,,2013-03-23 17:12:00,
2013-03-23 13:22:00,46.0,22.0,-100.00,NNW,345,6.0,14.0,39,0.00,,,-99.99,,2013-03-23 17:22:00,
2013-03-23 13:33:00,46.0,22.0,-100.00,NNW,345,6.0,14.0,39,0.00,,,-99.99,,2013-03-23 17:33:00,
2013-03-23 13:42:00,47.0,22.0,-100.00,WNW,290,7.0,17.0,37,0.00,,,-99.99,,2013-03-23 17:42:00,
2013-03-23 13:52:00,47.0,22.0,-100.00,WNW,290,7.0,17.0,37,0.00,,,-99.99,,2013-03-23 17:52:00,
2013-03-23 14:03:00,48.0,22.0,-100.00,NW,315,8.0,16.0,36,0.00,,,-99.99,,2013-03-23 18:03:00,
2013-03-23 14:12:00,46.0,21.0,-100.00,WNW,295,9.0,19.0,37,0.00,,,-99.99,,2013-03-23 18:12:00,
2013-03-23 14:22:00,47.0,22.0,-100.00,North,350,8.0,16.0,37,0.00,,,-99.99,,2013-03-23 18:22:00,
2013-03-23 14:32:00,47.0,22.0,-100.00,North,350,8.0,16.0,37,0.00,,,-99.99,,2013-03-23 18:32:00,
2013-03-23 14:42:00,50.0,24.0,-100.00,WNW,295,6.0,15.0,36,0.00,,,-99.99,,2013-03-23 18:42:00,
2013-03-23 14:52:00,50.0,24.0,-100.00,WNW,295,6.0,15.0,36,0.00,,,-99.99,,2013-03-23 18:52:00,
2013-03-23 15:03:00,50.0,23.0,-100.00,NW,315,9.0,24.0,35,0.00,,,-99.99,,2013-03-23 19:03:00,
2013-03-23 15:13:00,48.0,22.0,-100.00,North,0,9.0,19.0,35,0.00,,,-99.99,,2013-03-23 19:13:00,
2013-03-23 15:23:00,48.0,22.0,-100.00,North,0,9.0,19.0,35,0.00,,,-99.99,,2013-03-23 19:23:00,
2013-03-23 15:32:00,49.0,21.0,-100.00,NNW,330,10.0,18.0,33,0.00,,,-99.99,,2013-03-23 19:32:00,
2013-03-23 15:42:00,48.0,20.0,-100.00,NNW,330,10.0,19.0,33,0.00,,,-99.99,,2013-03-23 19:42:00,
2013-03-23 15:52:00,48.0,20.0,-100.00,NNW,330,10.0,19.0,33,0.00,,,-99.99,,2013-03-23 19:52:00,
2013-03-23 16:03:00,49.0,21.0,-100.00,NNW,330,8.0,21.0,33,0.00,,,-99.99,,2013-03-23 20:03:00,
2013-03-23 16:13:00,51.0,23.0,-100.00,NNW,340,7.0,19.0,33,0.00,,,-99.99,,2013-03-23 20:13:00,
2013-03-23 16:22:00,51.0,23.0,-100.00,NNW,340,7.0,19.0,33,0.00,,,-99.99,,2013-03-23 20:22:00,
2013-03-23 16:32:00,51.0,22.0,-100.00,NW,320,9.0,17.0,32,0.00,,,-99.99,,2013-03-23 20:32:00,
2013-03-23 16:42:00,49.0,21.0,-100.00,North,5,7.0,19.0,32,0.00,,,-99.99,,2013-03-23 20:42:00,
2013-03-23 16:52:00,49.0,21.0,-100.00,North,5,7.0,19.0,32,0.00,,,-99.99,,2013-03-23 20:52:00,
2013-03-23 17:02:00,50.0,21.0,-100.00,NW,305,9.0,20.0,31,0.00,,,-99.99,,2013-03-23 21:02:00,
2013-03-23 17:12:00,50.0,21.0,-100.00,NW,305,11.0,19.0,31,0.00,,,-99.99,,2013-03-23 21:12:00,
2013-03-23 17:22:00,49.0,20.0,-100.00,NW,310,11.0,22.0,32,0.00,,,-99.99,,2013-03-23 21:22:00,
2013-03-23 17:33:00,49.0,20.0,-100.00,NW,310,11.0,22.0,32,0.00,,,-99.99,,2013-03-23 21:33:00,
2013-03-23 17:43:00,49.0,20.0,-100.00,NW,325,10.0,19.0,32,0.00,,,-99.99,,2013-03-23 21:43:00,
2013-03-23 17:53:00,49.0,20.0,-100.00,NW,325,10.0,19.0,32,0.00,,,-99.99,,2013-03-23 21:53:00,
2013-03-23 18:03:00,48.0,20.0,-100.00,NNW,345,9.0,21.0,33,0.00,,,-99.99,,2013-03-23 22:03:00,
2013-03-23 18:13:00,47.0,19.0,-100.00,NNW,335,10.0,19.0,33,0.00,,,-99.99,,2013-03-23 22:13:00,
2013-03-23 18:23:00,47.0,19.0,-100.00,NNW,335,10.0,19.0,33,0.00,,,-99.99,,2013-03-23 22:23:00,
2013-03-23 18:33:00,47.0,20.0,-100.00,NW,320,9.0,18.0,34,0.00,,,-99.99,,2013-03-23 22:33:00,
2013-03-23 18:42:00,46.0,19.0,-100.00,NNW,335,11.0,17.0,34,0.00,,,-99.99,,2013-03-23 22:42:00,
2013-03-23 18:53:00,46.0,19.0,-100.00,NNW,335,11.0,17.0,34,0.00,,,-99.99,,2013-03-23 22:53:00,
2013-03-23 19:02:00,46.0,20.0,-100.00,NNW,330,6.0,12.0,35,0.00,,,-99.99,,2013-03-23 23:02:00,
2013-03-23 19:13:00,45.0,19.0,-100.00,NW,315,6.0,17.0,35,0.00,,,-99.99,,2013-03-23 23:13:00,
2013-03-23 19:23:00,45.0,19.0,-100.00,NW,315,6.0,17.0,35,0.00,,,-99.99,,2013-03-23 23:23:00,
2013-03-23 19:33:00,44.0,19.0,-100.00,NW,320,6.0,14.0,36,0.00,,,-99.99,,2013-03-23 23:33:00,
2013-03-23 19:43:00,43.0,18.0,-100.00,NW,310,3.0,8.0,37,0.00,,,-99.99,,2013-03-23 23:43:00,
2013-03-23 19:52:00,43.0,18.0,-100.00,NW,310,3.0,8.0,37,0.00,,,-99.99,,2013-03-23 23:52:00,
2013-03-23 20:02:00,41.0,18.0,-100.00,NNW,340,3.0,7.0,39,0.00,,,-99.99,,2013-03-24 00:02:00,
2013-03-23 20:12:00,41.0,18.0,-100.00,North,0,4.0,9.0,40,0.00,,,-99.99,,2013-03-24 00:12:00,
2013-03-23 20:22:00,41.0,18.0,-100.00,North,0,4.0,9.0,40,0.00,,,-99.99,,2013-03-24 00:22:00,
2013-03-23 20:33:00,40.0,18.0,-100.00,North,0,3.0,8.0,41,0.00,,,-99.99,,2013-03-24 00:33:00,
2013-03-23 20:42:00,40.0,18.0,-100.00,North,0,4.0,7.0,42,0.00,,,-99.99,,2013-03-24 00:42:00,
2013-03-23 20:52:00,40.0,18.0,-100.00,North,0,4.0,7.0,42,0.00,,,-99.99,,2013-03-24 00:52:00,
2013-03-23 21:02:00,39.0,19.0,-100.00,NNE,15,6.0,12.0,43,0.00,,,-99.99,,2013-03-24 01:02:00,
2013-03-23 21:12:00,39.0,19.0,-100.00,NNE,20,5.0,9.0,44,0.00,,,-99.99,,2013-03-24 01:12:00,
2013-03-23 21:22:00,39.0,19.0,-100.00,NNE,20,5.0,9.0,44,0.00,,,-99.99,,2013-03-24 01:22:00,
2013-03-23 21:33:00,38.0,19.0,-100.00,NNE,20,4.0,9.0,46,0.00,,,-99.99,,2013-03-24 01:33:00,
2013-03-23 21:42:00,37.0,19.0,-100.00,NNE,25,4.0,7.0,47,0.00,,,-99.99,,2013-03-24 01:42:00,
2013-03-23 21:52:00,37.0,19.0,-100.00,NNE,25,4.0,7.0,47,0.00,,,-99.99,,2013-03-24 01:52:00,
2013-03-23 22:03:00,37.0,19.0,-100.00,NNE,20,6.0,9.0,49,0.00,,,-99.99,,2013-03-24 02:03:00,
2013-03-23 22:12:00,36.0,20.0,-100.00,NNE,20,6.0,10.0,50,0.00,,,-99.99,,2013-03-24 02:12:00,
2013-03-23 22:22:00,36.0,20.0,-100.00,NNE,20,6.0,10.0,50,0.00,,,-99.99,,2013-03-24 02:22:00,
2013-03-23 22:32:00,36.0,19.0,-100.00,NNE,15,6.0,11.0,50,0.00,,,-99.99,,2013-03-24 02:32:00,
2013-03-23 22:42:00,35.0,19.0,-100.00,North,5,4.0,12.0,52,0.00,,,-99.99,,2013-03-24 02:42:00,
2013-03-23 22:52:00,35.0,19.0,-100.00,North,5,4.0,12.0,52,0.00,,,-99.99,,2013-03-24 02:52:00,
2013-03-23 23:02:00,35.0,20.0,-100.00,NNE,20,6.0,8.0,54,0.00,,,-99.99,,2013-03-24 03:02:00,
2013-03-23 23:12:00,34.0,19.0,-100.00,NNE,20,6.0,8.0,54,0.00,,,-99.99,,2013-03-24 03:12:00,
2013-03-23 23:23:00,34.0,19.0,-100.00,NNE,20,6.0,8.0,54,0.00,,,-99.99,,2013-03-24 03:23:00,
2013-03-23 23:33:00,33.0,19.0,-100.00,North,0,4.0,9.0,55,0.00,,,-99.99,,2013-03-24 03:33:00,
2013-03-23 23:42:00,33.0,19.0,-100.00,NNE,20,5.0,7.0,57,0.00,,,-99.99,,2013-03-24 03:42:00,
2013-03-23 23:53:00,33.0,19.0,-100.00,NNE,20,5.0,7.0,57,0.00,,,-99.99,,2013-03-24 03:53:00,